Time;durP1;ratioP1;P1;durP2;ratioP2;P2;SDS_P1;SDS_P2;PMS_P1;PMS_P2;Temp;Humidity;BMP_temperature;BMP_pressure;BME280_temperature;BME280_humidity;BME280_pressure;Samples;Min_cycle;Max_cycle;Signal;HPM_P1;HPM_P2
2023/02/25 00:01:31;;;;;;;11.55;6.75;;;;;;;;;;4992427;28;20395;-76
2023/02/25 00:03:57;;;;;;;11.50;7.53;;;;;;;;;;4980667;28;20503;-76
2023/02/25 00:06:24;;;;;;;10.25;7.00;;;;;;;;;;5008574;28;20058;-76
2023/02/25 00:08:51;;;;;;;12.40;7.40;;;;;;;;;;5008614;28;20054;-77
2023/02/25 00:11:19;;;;;;;10.73;6.78;;;;;;;;;;4992639;28;20061;-76
2023/02/25 00:13:45;;;;;;;12.10;7.38;;;;;;;;;;4957369;28;20054;-76
2023/02/25 00:16:13;;;;;;;11.77;7.82;;;;;;;;;;4990378;28;20054;-76
2023/02/25 00:18:43;;;;;;;11.85;6.47;;;;;;;;;;4997074;28;20113;-77
2023/02/25 00:21:14;;;;;;;11.65;6.75;;;;;;;;;;4963804;28;20061;-76
2023/02/25 00:23:42;;;;;;;10.80;6.57;;;;;;;;;;4996670;28;20050;-77
2023/02/25 00:26:10;;;;;;;9.95;6.00;;;;;;;;;;4991948;28;20537;-76
2023/02/25 00:28:38;;;;;;;10.80;6.38;;;;;;;;;;4992339;28;20065;-77
2023/02/25 00:31:07;;;;;;;7.20;6.35;;;;;;;;;;4991900;28;20058;-76
2023/02/25 00:33:34;;;;;;;8.52;5.72;;;;;;;;;;4975389;28;20474;-77
2023/02/25 00:36:05;;;;;;;10.18;6.18;;;;;;;;;;5008041;28;20050;-76
2023/02/25 00:38:31;;;;;;;10.65;6.00;;;;;;;;;;5008017;28;20051;-77
2023/02/25 00:40:58;;;;;;;10.68;5.45;;;;;;;;;;4975672;28;20062;-77
2023/02/25 00:43:25;;;;;;;8.70;5.80;;;;;;;;;;4975423;28;20042;-76
2023/02/25 00:45:51;;;;;;;9.13;5.00;;;;;;;;;;5007962;28;20054;-77
2023/02/25 00:48:18;;;;;;;8.00;5.28;;;;;;;;;;5007520;28;20515;-77
2023/02/25 00:50:45;;;;;;;8.23;4.90;;;;;;;;;;5007789;28;20149;-76
2023/02/25 00:53:11;;;;;;;7.60;4.57;;;;;;;;;;5006720;28;20096;-77
2023/02/25 00:55:38;;;;;;;5.78;4.75;;;;;;;;;;4990409;28;20057;-76
2023/02/25 00:58:05;;;;;;;7.15;4.70;;;;;;;;;;4989793;28;20168;-76
2023/02/25 01:00:32;;;;;;;9.02;4.00;;;;;;;;;;5006185;28;20058;-77
2023/02/25 01:03:16;;;;;;;8.48;5.22;;;;;;;;;;4976929;28;20562;-77
2023/02/25 01:05:48;;;;;;;6.28;4.28;;;;;;;;;;4990984;28;20062;-76
2023/02/25 01:08:16;;;;;;;9.35;4.40;;;;;;;;;;4992059;28;20058;-76
2023/02/25 01:10:44;;;;;;;6.43;4.30;;;;;;;;;;4990932;28;20062;-76
2023/02/25 01:13:11;;;;;;;11.13;5.07;;;;;;;;;;4990874;28;20050;-77
2023/02/25 01:15:38;;;;;;;7.88;5.07;;;;;;;;;;5007215;28;20069;-77
2023/02/25 01:18:05;;;;;;;8.68;4.40;;;;;;;;;;5006884;28;20054;-77
2023/02/25 01:20:35;;;;;;;7.72;4.85;;;;;;;;;;5007240;28;20499;-77
2023/02/25 01:23:02;;;;;;;8.80;4.55;;;;;;;;;;4991379;28;20058;-76
2023/02/25 01:25:29;;;;;;;7.25;4.88;;;;;;;;;;5007139;28;20050;-76
2023/02/25 01:27:56;;;;;;;8.73;4.90;;;;;;;;;;4973942;28;20058;-77
2023/02/25 01:30:23;;;;;;;6.30;4.25;;;;;;;;;;5007676;28;20047;-77
2023/02/25 01:32:49;;;;;;;4.82;3.58;;;;;;;;;;4974640;28;20065;-76
2023/02/25 01:35:16;;;;;;;4.43;3.17;;;;;;;;;;4991020;28;20137;-76
2023/02/25 01:37:45;;;;;;;5.43;3.22;;;;;;;;;;4975240;28;20053;-76
2023/02/25 01:40:16;;;;;;;6.13;4.53;;;;;;;;;;5007095;28;20054;-76
2023/02/25 01:42:44;;;;;;;5.65;3.22;;;;;;;;;;4974479;28;20472;-76
2023/02/25 01:45:17;;;;;;;8.40;3.58;;;;;;;;;;4958570;28;20054;-76
2023/02/25 01:47:51;;;;;;;6.22;3.47;;;;;;;;;;5006963;28;20110;-77
2023/02/25 01:50:23;;;;;;;6.13;3.70;;;;;;;;;;5006976;28;20066;-76
2023/02/25 01:52:50;;;;;;;8.25;3.70;;;;;;;;;;4981298;28;20055;-77
2023/02/25 01:55:16;;;;;;;9.00;3.78;;;;;;;;;;4971229;28;20058;-75
2023/02/25 01:57:43;;;;;;;5.47;3.63;;;;;;;;;;4970604;28;20061;-76
2023/02/25 02:00:16;;;;;;;7.65;4.00;;;;;;;;;;4970729;28;20059;-79
2023/02/25 02:02:43;;;;;;;;;;;;;;;;;;4982274;28;20058;-76
2023/02/25 02:05:10;;;;;;;6.13;3.53;;;;;;;;;;4990646;28;20021;-76
2023/02/25 02:07:37;;;;;;;7.47;4.00;;;;;;;;;;4990233;28;20065;-76
2023/02/25 02:10:04;;;;;;;8.73;3.85;;;;;;;;;;5006264;28;20466;-76
2023/02/25 02:12:39;;;;;;;6.75;3.58;;;;;;;;;;4974309;28;20061;-76
2023/02/25 02:15:08;;;;;;;5.80;3.35;;;;;;;;;;4974649;28;20066;-77
2023/02/25 02:18:01;;;;;;;4.60;3.40;;;;;;;;;;5005876;28;20050;-76
2023/02/25 02:21:05;;;;;;;5.28;3.00;;;;;;;;;;4987933;28;20058;-76
2023/02/25 02:24:05;;;;;;;6.45;3.28;;;;;;;;;;5006026;28;20396;-77
2023/02/25 02:26:51;;;;;;;7.35;2.85;;;;;;;;;;4973692;28;20050;-76
2023/02/25 02:29:20;;;;;;;6.93;2.72;;;;;;;;;;5006411;28;20058;-76
2023/02/25 02:31:59;;;;;;;3.65;2.33;;;;;;;;;;5006393;28;20047;-76
2023/02/25 02:34:33;;;;;;;7.47;3.25;;;;;;;;;;5006661;28;20050;-76
2023/02/25 02:37:32;;;;;;;6.18;2.67;;;;;;;;;;4989871;28;20054;-76
2023/02/25 02:40:14;;;;;;;4.85;2.90;;;;;;;;;;4959845;28;20054;-76
2023/02/25 02:43:02;;;;;;;4.47;2.65;;;;;;;;;;5010159;28;20577;-76
2023/02/25 02:45:53;;;;;;;4.57;2.70;;;;;;;;;;4993758;28;20058;-76
2023/02/25 02:48:39;;;;;;;4.45;2.85;;;;;;;;;;5009543;28;20077;-76
2023/02/25 02:51:13;;;;;;;5.97;3.10;;;;;;;;;;4994146;28;20057;-76
2023/02/25 02:53:47;;;;;;;4.35;2.92;;;;;;;;;;4976828;28;20100;-76
2023/02/25 02:56:14;;;;;;;4.40;2.80;;;;;;;;;;4992873;28;20061;-76
2023/02/25 02:58:43;;;;;;;5.55;2.97;;;;;;;;;;5008881;28;20058;-76
2023/02/25 03:01:16;;;;;;;5.57;2.92;;;;;;;;;;4992606;28;20518;-76
2023/02/25 03:03:46;;;;;;;4.85;2.65;;;;;;;;;;5009082;28;20054;-76
2023/02/25 03:06:18;;;;;;;5.53;2.90;;;;;;;;;;4976405;28;20156;-76
2023/02/25 03:08:48;;;;;;;5.68;2.97;;;;;;;;;;4992518;28;20050;-76
2023/02/25 03:11:15;;;;;;;6.65;3.10;;;;;;;;;;4977050;28;20054;-76
2023/02/25 03:13:41;;;;;;;8.80;3.58;;;;;;;;;;4993005;28;20469;-76
2023/02/25 03:16:11;;;;;;;8.45;3.55;;;;;;;;;;4992949;28;20046;-76
2023/02/25 03:18:41;;;;;;;4.40;2.65;;;;;;;;;;5009315;28;20050;-76
2023/02/25 03:21:14;;;;;;;6.43;3.03;;;;;;;;;;5009287;28;20062;-76
2023/02/25 03:23:41;;;;;;;6.38;2.70;;;;;;;;;;4993683;28;20502;-75
2023/02/25 03:26:26;;;;;;;5.28;3.00;;;;;;;;;;4993268;28;20466;-77
2023/02/25 03:28:53;;;;;;;5.72;3.28;;;;;;;;;;4993232;28;20054;-75
2023/02/25 03:31:25;;;;;;;6.40;2.55;;;;;;;;;;4992878;28;20116;-75
2023/02/25 03:33:55;;;;;;;4.53;3.40;;;;;;;;;;5008729;28;20077;-75
2023/02/25 03:36:27;;;;;;;5.63;2.88;;;;;;;;;;5007873;28;20050;-75
2023/02/25 03:38:58;;;;;;;5.22;3.15;;;;;;;;;;4992214;28;20054;-75
2023/02/25 03:41:28;;;;;;;6.45;3.72;;;;;;;;;;4991671;28;20066;-76
2023/02/25 03:43:55;;;;;;;6.13;2.72;;;;;;;;;;4991736;28;20092;-76
2023/02/25 03:46:22;;;;;;;4.43;2.83;;;;;;;;;;4991251;28;20453;-75
2023/02/25 03:48:50;;;;;;;4.80;2.97;;;;;;;;;;4991134;28;20136;-75
2023/02/25 03:51:19;;;;;;;7.95;3.40;;;;;;;;;;4991579;28;20058;-76
2023/02/25 03:53:46;;;;;;;5.25;3.22;;;;;;;;;;4992041;28;20054;-76
2023/02/25 03:56:12;;;;;;;5.15;2.80;;;;;;;;;;4991962;28;20046;-75
2023/02/25 03:58:40;;;;;;;5.68;3.45;;;;;;;;;;4972272;28;20062;-75
2023/02/25 04:01:15;;;;;;;10.50;3.47;;;;;;;;;;4972260;28;20058;-75
2023/02/25 04:03:43;;;;;;;6.07;2.88;;;;;;;;;;4972273;28;20051;-75
2023/02/25 04:06:13;;;;;;;6.28;3.28;;;;;;;;;;4992185;28;20051;-75
2023/02/25 04:08:40;;;;;;;7.15;3.03;;;;;;;;;;4975316;28;20054;-75
2023/02/25 04:11:07;;;;;;;5.10;2.40;;;;;;;;;;4992544;28;20400;-76
2023/02/25 04:13:33;;;;;;;5.05;2.90;;;;;;;;;;4991241;28;20050;-76
2023/02/25 04:16:00;;;;;;;6.60;2.50;;;;;;;;;;4990764;28;20058;-75
2023/02/25 04:18:27;;;;;;;6.53;2.55;;;;;;;;;;4991291;28;20105;-76
2023/02/25 04:20:54;;;;;;;4.20;1.77;;;;;;;;;;4991948;28;20444;-77
2023/02/25 04:23:20;;;;;;;5.75;1.90;;;;;;;;;;5007949;28;20069;-76
2023/02/25 04:25:47;;;;;;;5.60;2.33;;;;;;;;;;4991698;28;20061;-76
2023/02/25 04:28:14;;;;;;;4.95;2.20;;;;;;;;;;4991446;28;20570;-77
2023/02/25 04:30:41;;;;;;;5.35;1.83;;;;;;;;;;4991380;28;20058;-76
2023/02/25 04:33:11;;;;;;;7.88;2.13;;;;;;;;;;4991223;28;20054;-77
2023/02/25 04:35:38;;;;;;;4.70;1.65;;;;;;;;;;4990828;28;20050;-75
2023/02/25 04:38:04;;;;;;;4.68;1.52;;;;;;;;;;5007137;28;20057;-76
2023/02/25 04:40:35;;;;;;;6.63;1.80;;;;;;;;;;4990971;28;20061;-76
2023/02/25 04:43:01;;;;;;;3.63;1.50;;;;;;;;;;4990981;28;20399;-76
2023/02/25 04:45:28;;;;;;;4.25;1.45;;;;;;;;;;4990241;28;20068;-76
2023/02/25 04:47:56;;;;;;;4.78;2.05;;;;;;;;;;4990570;28;20069;-76
2023/02/25 04:50:23;;;;;;;5.47;1.73;;;;;;;;;;4990540;28;20609;-76
2023/02/25 04:52:50;;;;;;;7.13;1.70;;;;;;;;;;4991145;28;20065;-76
2023/02/25 04:55:17;;;;;;;5.30;1.40;;;;;;;;;;5007270;28;20077;-75
2023/02/25 04:57:43;;;;;;;8.02;1.30;;;;;;;;;;4974621;28;20054;-76
2023/02/25 05:00:18;;;;;;;4.55;1.40;;;;;;;;;;4990527;28;20057;-77
2023/02/25 05:02:47;;;;;;;7.53;1.70;;;;;;;;;;4975867;28;20055;-77
2023/02/25 05:05:15;;;;;;;4.53;1.20;;;;;;;;;;4990416;28;20058;-77
2023/02/25 05:07:42;;;;;;;5.85;1.50;;;;;;;;;;4958486;28;20054;-77
2023/02/25 05:10:10;;;;;;;5.28;1.40;;;;;;;;;;4958279;28;20418;-77
2023/02/25 05:12:39;;;;;;;4.20;1.30;;;;;;;;;;4974751;28;20054;-78
2023/02/25 05:15:07;;;;;;;5.00;1.27;;;;;;;;;;4954823;28;20130;-77
2023/02/25 05:17:34;;;;;;;5.03;1.42;;;;;;;;;;4989430;28;20515;-78
2023/02/25 05:20:06;;;;;;;3.15;1.30;;;;;;;;;;4980815;28;20054;-78
2023/02/25 05:22:32;;;;;;;5.97;1.55;;;;;;;;;;4971750;28;20090;-80
2023/02/25 05:24:59;;;;;;;7.47;1.55;;;;;;;;;;4977018;28;20487;-78
2023/02/25 05:27:26;;;;;;;6.05;1.48;;;;;;;;;;4973636;28;20077;-77
2023/02/25 05:29:54;;;;;;;6.07;1.60;;;;;;;;;;5006031;28;20061;-77
2023/02/25 05:32:21;;;;;;;5.78;2.25;;;;;;;;;;4973796;28;20089;-77
2023/02/25 05:34:48;;;;;;;7.38;1.83;;;;;;;;;;4973375;28;20469;-77
2023/02/25 05:37:15;;;;;;;11.10;2.10;;;;;;;;;;4970223;28;20393;-79
2023/02/25 05:39:41;;;;;;;2.85;1.33;;;;;;;;;;4970652;28;20054;-78
2023/02/25 05:42:08;;;;;;;5.80;2.38;;;;;;;;;;4978371;28;20057;-78
2023/02/25 05:44:35;;;;;;;6.10;1.20;;;;;;;;;;4990792;28;20054;-79
2023/02/25 05:47:02;;;;;;;6.78;1.27;;;;;;;;;;4973903;28;20050;-78
2023/02/25 05:49:28;;;;;;;3.13;1.33;;;;;;;;;;4990584;28;20058;-78
2023/02/25 05:51:55;;;;;;;4.63;1.52;;;;;;;;;;4991030;28;20054;-79
2023/02/25 05:54:22;;;;;;;1.88;1.10;;;;;;;;;;4989412;28;20534;-77
2023/02/25 05:56:52;;;;;;;3.95;1.30;;;;;;;;;;5005648;28;20514;-76
2023/02/25 05:59:19;;;;;;;4.03;1.73;;;;;;;;;;5005567;28;20061;-76
2023/02/25 06:01:45;;;;;;;5.80;1.20;;;;;;;;;;5005049;28;20065;-76
2023/02/25 06:04:12;;;;;;;6.78;1.30;;;;;;;;;;4957371;28;20054;-78
2023/02/25 06:06:40;;;;;;;5.53;1.17;;;;;;;;;;4989334;28;20057;-78
2023/02/25 06:09:09;;;;;;;6.60;1.13;;;;;;;;;;5005015;28;20050;-77
2023/02/25 06:11:36;;;;;;;6.47;1.00;;;;;;;;;;5005717;28;20054;-77
2023/02/25 06:14:02;;;;;;;6.93;1.50;;;;;;;;;;4995987;28;20057;-77
2023/02/25 06:16:30;;;;;;;6.18;2.78;;;;;;;;;;4995611;28;20685;-77
2023/02/25 06:18:58;;;;;;;5.60;1.75;;;;;;;;;;4993213;28;20093;-77
2023/02/25 06:21:25;;;;;;;4.82;1.60;;;;;;;;;;4993347;28;20056;-76
2023/02/25 06:23:52;;;;;;;3.60;1.50;;;;;;;;;;4993546;28;20069;-77
2023/02/25 06:26:19;;;;;;;4.13;1.20;;;;;;;;;;5009482;28;20058;-76
2023/02/25 06:28:46;;;;;;;2.92;1.10;;;;;;;;;;5008816;28;20441;-76
2023/02/25 06:31:16;;;;;;;5.88;0.90;;;;;;;;;;4993444;28;20823;-76
2023/02/25 06:33:44;;;;;;;7.65;0.90;;;;;;;;;;4978940;28;20562;-76
2023/02/25 06:36:11;;;;;;;3.20;1.70;;;;;;;;;;4977260;28;20046;-77
2023/02/25 06:38:38;;;;;;;3.30;0.95;;;;;;;;;;4993451;28;20053;-76
2023/02/25 06:41:09;;;;;;;4.63;1.17;;;;;;;;;;5009112;28;20062;-77
2023/02/25 06:43:37;;;;;;;4.18;1.10;;;;;;;;;;4992639;28;20061;-76
2023/02/25 06:46:08;;;;;;;3.72;0.98;;;;;;;;;;5009225;28;20093;-76
2023/02/25 06:48:35;;;;;;;2.78;0.90;;;;;;;;;;4992340;28;20547;-76
2023/02/25 06:51:07;;;;;;;3.13;0.90;;;;;;;;;;4992766;28;20054;-76
2023/02/25 06:53:36;;;;;;;4.73;0.97;;;;;;;;;;4980023;28;20109;-76
2023/02/25 06:56:03;;;;;;;4.00;1.10;;;;;;;;;;5012233;28;20431;-78
2023/02/25 06:58:29;;;;;;;5.97;1.20;;;;;;;;;;5010094;28;20065;-75
2023/02/25 07:00:57;;;;;;;5.13;0.85;;;;;;;;;;4977562;28;20125;-76
2023/02/25 07:03:24;;;;;;;4.05;0.80;;;;;;;;;;4995132;28;20499;-75
2023/02/25 07:05:51;;;;;;;2.17;0.80;;;;;;;;;;4991827;28;20062;-75
2023/02/25 07:08:17;;;;;;;4.13;0.90;;;;;;;;;;5006629;28;20561;-75
2023/02/25 07:10:44;;;;;;;3.72;1.13;;;;;;;;;;4990890;28;20065;-75
2023/02/25 07:13:11;;;;;;;6.68;1.70;;;;;;;;;;5007498;28;20050;-76
2023/02/25 07:15:37;;;;;;;10.23;2.42;;;;;;;;;;4976690;28;20082;-76
2023/02/25 07:18:04;;;;;;;5.43;1.83;;;;;;;;;;5007626;28;20054;-75
2023/02/25 07:20:31;;;;;;;5.80;1.35;;;;;;;;;;5007782;28;20084;-75
2023/02/25 07:23:01;;;;;;;4.65;1.20;;;;;;;;;;4991351;28;20061;-75
2023/02/25 07:25:28;;;;;;;5.57;0.93;;;;;;;;;;4974008;28;20823;-76
2023/02/25 07:27:54;;;;;;;4.38;2.00;;;;;;;;;;5007640;28;20081;-76
2023/02/25 07:30:21;;;;;;;5.85;2.47;;;;;;;;;;4991652;28;20062;-74
2023/02/25 07:32:48;;;;;;;3.90;1.02;;;;;;;;;;4991562;28;20058;-75
2023/02/25 07:35:15;;;;;;;2.70;0.90;;;;;;;;;;4991085;28;20089;-74
2023/02/25 07:37:41;;;;;;;5.80;1.30;;;;;;;;;;4990544;28;20554;-76
2023/02/25 07:40:11;;;;;;;3.78;1.00;;;;;;;;;;4958505;28;20050;-76
2023/02/25 07:42:41;;;;;;;5.25;1.10;;;;;;;;;;4991845;28;20491;-76
2023/02/25 07:45:09;;;;;;;3.50;1.13;;;;;;;;;;4991166;28;20051;-75
2023/02/25 07:47:36;;;;;;;6.45;1.35;;;;;;;;;;4974723;28;20492;-75
2023/02/25 07:50:05;;;;;;;4.70;1.17;;;;;;;;;;4991014;28;20058;-76
2023/02/25 07:52:31;;;;;;;3.55;0.90;;;;;;;;;;4990593;28;20515;-75
2023/02/25 07:54:58;;;;;;;4.47;1.25;;;;;;;;;;4990341;28;20514;-75
2023/02/25 07:57:25;;;;;;;6.20;2.13;;;;;;;;;;5006614;28;20058;-75
2023/02/25 07:59:51;;;;;;;8.13;1.50;;;;;;;;;;4990971;28;20068;-75
2023/02/25 08:02:18;;;;;;;7.35;1.95;;;;;;;;;;4990625;28;20058;-76
2023/02/25 08:04:45;;;;;;;5.25;1.50;;;;;;;;;;4974533;28;20078;-75
2023/02/25 08:07:12;;;;;;;9.98;2.75;;;;;;;;;;4990843;28;20066;-75
2023/02/25 08:09:40;;;;;;;5.82;2.40;;;;;;;;;;4974442;28;20077;-77
2023/02/25 08:12:07;;;;;;;9.40;2.70;;;;;;;;;;5007504;28;20578;-76
2023/02/25 08:14:36;;;;;;;2.67;1.40;;;;;;;;;;5008850;28;20161;-73
2023/02/25 08:17:02;;;;;;;4.95;2.83;;;;;;;;;;4992650;28;20073;-73
2023/02/25 08:19:29;;;;;;;6.97;2.10;;;;;;;;;;4992479;28;20054;-71
2023/02/25 08:21:56;;;;;;;5.07;1.85;;;;;;;;;;4991777;28;20061;-71
2023/02/25 08:24:22;;;;;;;3.33;1.10;;;;;;;;;;4991280;28;20057;-75
2023/02/25 08:26:49;;;;;;;5.63;1.48;;;;;;;;;;4992742;28;20050;-72
2023/02/25 08:29:17;;;;;;;4.93;1.30;;;;;;;;;;5007603;28;20500;-74
2023/02/25 08:31:45;;;;;;;4.22;1.20;;;;;;;;;;4990036;28;20434;-76
2023/02/25 08:34:12;;;;;;;4.95;1.10;;;;;;;;;;4969616;28;20062;-75
2023/02/25 08:36:39;;;;;;;4.72;1.30;;;;;;;;;;5005909;28;20053;-75
2023/02/25 08:39:07;;;;;;;5.30;1.52;;;;;;;;;;5007741;28;20050;-76
2023/02/25 08:41:34;;;;;;;4.10;1.25;;;;;;;;;;4997308;28;20058;-76
2023/02/25 08:44:01;;;;;;;6.30;1.80;;;;;;;;;;4988921;28;20065;-75
2023/02/25 08:46:30;;;;;;;4.30;1.00;;;;;;;;;;4988819;28;20061;-77
2023/02/25 08:48:57;;;;;;;2.58;1.00;;;;;;;;;;4988976;28;20050;-76
2023/02/25 08:51:32;;;;;;;3.15;1.30;;;;;;;;;;4985630;28;20647;-75
2023/02/25 08:54:08;;;;;;;3.80;1.00;;;;;;;;;;4979588;28;20132;-76
2023/02/25 08:56:35;;;;;;;7.40;1.50;;;;;;;;;;4987004;28;20054;-76
2023/02/25 08:59:03;;;;;;;4.85;1.20;;;;;;;;;;4985562;28;20057;-76
2023/02/25 09:01:43;;;;;;;2.75;1.00;;;;;;;;;;4969385;28;20411;-77
2023/02/25 09:04:16;;;;;;;4.75;1.00;;;;;;;;;;4980868;28;20454;-79
2023/02/25 09:06:46;;;;;;;3.83;1.13;;;;;;;;;;4988348;28;20085;-76
2023/02/25 09:09:17;;;;;;;6.10;1.30;;;;;;;;;;4991258;28;20458;-75
2023/02/25 09:11:45;;;;;;;4.93;1.00;;;;;;;;;;4982823;28;20058;-75
2023/02/25 09:14:15;;;;;;;4.25;0.90;;;;;;;;;;4992215;28;20077;-75
2023/02/25 09:16:42;;;;;;;5.30;1.23;;;;;;;;;;4989325;28;20053;-76
2023/02/25 09:19:11;;;;;;;2.58;1.23;;;;;;;;;;4990766;28;20422;-75
2023/02/25 09:21:41;;;;;;;4.45;1.05;;;;;;;;;;5002511;28;20094;-75
2023/02/25 09:24:08;;;;;;;2.35;1.00;;;;;;;;;;5005144;28;20046;-75
2023/02/25 09:26:35;;;;;;;7.90;1.48;;;;;;;;;;5005422;28;20422;-75
2023/02/25 09:29:03;;;;;;;3.97;1.83;;;;;;;;;;4989196;28;20060;-75
2023/02/25 09:31:32;;;;;;;2.88;1.08;;;;;;;;;;4975115;28;20046;-75
2023/02/25 09:34:03;;;;;;;3.00;0.95;;;;;;;;;;4991042;28;20481;-75
2023/02/25 09:36:31;;;;;;;2.85;0.70;;;;;;;;;;4990891;28;20046;-75
2023/02/25 09:38:58;;;;;;;3.00;0.90;;;;;;;;;;5003338;28;20482;-76
2023/02/25 09:41:43;;;;;;;5.78;1.98;;;;;;;;;;4990674;28;20054;-75
2023/02/25 09:44:14;;;;;;;5.57;1.38;;;;;;;;;;4978528;28;20105;-76
2023/02/25 09:46:50;;;;;;;5.82;1.30;;;;;;;;;;4987511;28;20061;-75
2023/02/25 09:49:41;;;;;;;3.08;0.75;;;;;;;;;;4987749;28;20054;-76
2023/02/25 09:52:27;;;;;;;2.40;0.73;;;;;;;;;;4987730;28;20053;-75
2023/02/25 09:55:28;;;;;;;3.15;1.05;;;;;;;;;;4986715;28;20058;-74
2023/02/25 09:58:07;;;;;;;3.03;0.85;;;;;;;;;;4987391;28;20042;-74
2023/02/25 10:00:41;;;;;;;2.97;1.08;;;;;;;;;;4985691;28;20055;-74
2023/02/25 10:03:28;;;;;;;6.07;1.33;;;;;;;;;;5002946;28;20054;-74
2023/02/25 10:06:30;;;;;;;2.92;1.50;;;;;;;;;;4988440;28;20058;-74
2023/02/25 10:09:28;;;;;;;2.58;0.93;;;;;;;;;;4977773;28;20054;-74
2023/02/25 10:12:00;;;;;;;1.73;0.50;;;;;;;;;;4984712;28;20057;-75
2023/02/25 10:14:40;;;;;;;2.25;0.82;;;;;;;;;;4989700;28;20054;-75
2023/02/25 10:17:30;;;;;;;2.88;0.70;;;;;;;;;;4991197;28;20050;-75
2023/02/25 10:20:22;;;;;;;3.58;1.00;;;;;;;;;;5002317;28;20391;-76
2023/02/25 10:23:11;;;;;;;5.75;0.90;;;;;;;;;;5003968;28;20063;-76
2023/02/25 10:25:58;;;;;;;3.15;0.85;;;;;;;;;;5001775;28;20058;-75
2023/02/25 10:28:27;;;;;;;1.77;0.60;;;;;;;;;;4986962;28;20512;-75
2023/02/25 10:31:05;;;;;;;1.98;0.65;;;;;;;;;;4988553;28;20683;-75
2023/02/25 10:33:39;;;;;;;0.85;0.47;;;;;;;;;;4985927;28;20178;-75
2023/02/25 10:36:15;;;;;;;2.30;0.68;;;;;;;;;;4989152;28;20054;-75
2023/02/25 10:38:50;;;;;;;4.05;1.38;;;;;;;;;;5005154;28;20526;-75
2023/02/25 10:41:17;;;;;;;2.88;0.50;;;;;;;;;;4989145;28;20054;-75
2023/02/25 10:43:44;;;;;;;3.40;0.93;;;;;;;;;;4990417;28;20054;-75
2023/02/25 10:46:28;;;;;;;3.78;0.80;;;;;;;;;;4990771;28;20042;-75
2023/02/25 10:49:00;;;;;;;2.05;0.80;;;;;;;;;;4987895;28;20050;-76
2023/02/25 10:51:28;;;;;;;5.22;0.82;;;;;;;;;;4985720;28;20419;-76
2023/02/25 10:53:55;;;;;;;3.47;0.88;;;;;;;;;;4988265;28;20062;-75
2023/02/25 10:56:24;;;;;;;2.42;0.70;;;;;;;;;;5003361;28;20124;-75
2023/02/25 10:59:05;;;;;;;3.58;1.00;;;;;;;;;;4994527;28;20529;-76
2023/02/25 11:01:41;;;;;;;3.35;1.23;;;;;;;;;;4989480;28;20046;-75
2023/02/25 11:04:13;;;;;;;3.33;0.80;;;;;;;;;;4983716;28;20054;-76
2023/02/25 11:06:41;;;;;;;5.85;1.40;;;;;;;;;;4991305;28;20057;-75
2023/02/25 11:09:17;;;;;;;3.42;0.85;;;;;;;;;;4977704;28;20058;-75
2023/02/25 11:12:10;;;;;;;3.35;1.10;;;;;;;;;;4989165;28;20054;-76
2023/02/25 11:14:38;;;;;;;7.40;1.02;;;;;;;;;;5004876;28;20066;-77
2023/02/25 11:17:10;;;;;;;4.25;1.00;;;;;;;;;;5002132;28;20060;-75
2023/02/25 11:19:39;;;;;;;2.22;1.00;;;;;;;;;;5004318;28;20097;-75
2023/02/25 11:22:10;;;;;;;1.70;0.70;;;;;;;;;;5006876;28;20502;-76
2023/02/25 11:24:37;;;;;;;4.03;1.67;;;;;;;;;;4961959;28;20069;-75
2023/02/25 11:27:06;;;;;;;5.35;1.63;;;;;;;;;;5004156;28;20057;-75
2023/02/25 11:29:38;;;;;;;3.88;1.05;;;;;;;;;;4988957;28;20046;-75
2023/02/25 11:32:16;;;;;;;3.60;1.13;;;;;;;;;;4987385;28;20050;-75
2023/02/25 11:34:52;;;;;;;4.43;1.20;;;;;;;;;;4990797;28;20074;-76
2023/02/25 11:37:42;;;;;;;3.50;1.00;;;;;;;;;;4988915;28;20051;-76
2023/02/25 11:40:29;;;;;;;3.50;1.30;;;;;;;;;;5002682;28;20069;-75
2023/02/25 11:43:04;;;;;;;1.42;0.90;;;;;;;;;;4988477;28;20425;-75
2023/02/25 11:45:33;;;;;;;3.50;1.10;;;;;;;;;;5002311;28;20050;-77
2023/02/25 11:48:02;;;;;;;3.35;1.52;;;;;;;;;;4980610;28;20057;-76
2023/02/25 11:50:51;;;;;;;2.65;1.10;;;;;;;;;;4989011;28;20050;-76
2023/02/25 11:53:55;;;;;;;3.47;1.45;;;;;;;;;;4989310;28;20042;-76
2023/02/25 11:56:31;;;;;;;2.38;1.00;;;;;;;;;;4988265;28;20046;-75
2023/02/25 11:59:30;;;;;;;3.70;1.00;;;;;;;;;;4980280;28;20057;-76
2023/02/25 12:02:38;;;;;;;4.30;1.20;;;;;;;;;;4986236;28;20414;-77
2023/02/25 12:05:13;;;;;;;3.42;1.15;;;;;;;;;;4982374;28;20054;-76
2023/02/25 12:08:22;;;;;;;6.20;1.40;;;;;;;;;;4980155;28;20065;-76
2023/02/25 12:11:37;;;;;;;2.58;1.08;;;;;;;;;;4983178;28;20059;-76
2023/02/25 12:14:08;;;;;;;4.10;1.38;;;;;;;;;;4955707;28;20106;-77
2023/02/25 12:17:01;;;;;;;2.30;1.10;;;;;;;;;;4987822;28;20053;-76
2023/02/25 12:20:05;;;;;;;2.65;1.27;;;;;;;;;;4983818;28;20055;-76
2023/02/25 12:22:50;;;;;;;;;;;;;;;;;;4990263;28;20204;-76
2023/02/25 12:25:58;;;;;;;4.47;1.20;;;;;;;;;;4991394;28;19922;-76
2023/02/25 12:28:50;;;;;;;2.35;1.17;;;;;;;;;;5002943;28;20050;-76
2023/02/25 12:31:35;;;;;;;4.18;1.40;;;;;;;;;;4986782;28;20057;-76
2023/02/25 12:34:14;;;;;;;4.95;1.60;;;;;;;;;;5055422;22;20055;-73
2023/02/25 12:36:57;;;;;;;4.82;2.03;;;;;;;;;;4985880;28;20062;-76
2023/02/25 12:39:32;;;;;;;4.65;1.27;;;;;;;;;;4985608;28;20086;-74
2023/02/25 12:42:20;;;;;;;2.13;1.00;;;;;;;;;;4983192;28;20055;-74
2023/02/25 12:45:16;;;;;;;3.95;1.00;;;;;;;;;;4986161;28;20407;-74
2023/02/25 12:48:01;;;;;;;4.93;1.10;;;;;;;;;;4961611;28;20051;-73
2023/02/25 12:50:28;;;;;;;5.10;1.00;;;;;;;;;;4986602;28;20051;-73
2023/02/25 12:53:13;;;;;;;1.90;0.90;;;;;;;;;;4985363;28;20050;-73
2023/02/25 12:55:55;;;;;;;5.57;2.03;;;;;;;;;;4984042;28;20059;-73
2023/02/25 12:58:40;;;;;;;3.10;1.48;;;;;;;;;;4986386;28;20051;-73
2023/02/25 13:01:13;;;;;;;5.38;2.70;;;;;;;;;;4987160;28;20082;-74
2023/02/25 13:04:00;;;;;;;5.43;1.27;;;;;;;;;;4986158;28;20051;-73
2023/02/25 13:06:52;;;;;;;2.20;1.40;;;;;;;;;;4984543;28;20073;-74
2023/02/25 13:09:50;;;;;;;5.93;1.15;;;;;;;;;;4984023;28;20470;-72
2023/02/25 13:12:53;;;;;;;3.65;2.10;;;;;;;;;;4984341;28;20118;-73
2023/02/25 13:15:59;;;;;;;6.95;1.48;;;;;;;;;;4984663;28;20130;-73
2023/02/25 13:18:28;;;;;;;7.70;2.70;;;;;;;;;;4983188;28;20503;-74
2023/02/25 13:21:04;;;;;;;4.50;1.30;;;;;;;;;;4984770;28;20504;-74
2023/02/25 13:24:00;;;;;;;4.38;1.25;;;;;;;;;;4969792;28;20047;-75
2023/02/25 13:26:45;;;;;;;3.65;1.42;;;;;;;;;;4968845;28;20058;-73
2023/02/25 13:29:21;;;;;;;5.82;1.00;;;;;;;;;;4970470;28;20054;-73
2023/02/25 13:32:16;;;;;;;3.13;1.80;;;;;;;;;;4969392;28;20067;-73
2023/02/25 13:35:05;;;;;;;3.25;1.15;;;;;;;;;;4985608;28;20113;-73
2023/02/25 13:37:57;;;;;;;7.78;1.05;;;;;;;;;;4985158;28;20066;-73
2023/02/25 13:40:28;;;;;;;5.75;1.20;;;;;;;;;;4988558;28;20046;-72
2023/02/25 13:43:20;;;;;;;5.28;1.40;;;;;;;;;;4966970;28;20058;-75
2023/02/25 13:46:32;;;;;;;4.82;1.88;;;;;;;;;;4982368;28;20054;-73
2023/02/25 13:49:08;;;;;;;6.03;2.47;;;;;;;;;;4933475;29;20047;-72
2023/02/25 13:51:57;;;;;;;3.42;1.10;;;;;;;;;;4930511;29;20059;-73
2023/02/25 13:54:53;;;;;;;4.10;1.02;;;;;;;;;;4959459;28;20451;-72
2023/02/25 13:57:26;;;;;;;5.25;0.93;;;;;;;;;;4969932;28;20394;-73
2023/02/25 13:59:52;;;;;;;3.13;0.90;;;;;;;;;;4983645;28;20381;-73
2023/02/25 14:02:49;;;;;;;5.97;1.10;;;;;;;;;;4984338;28;20062;-73
2023/02/25 14:05:23;;;;;;;4.90;1.90;;;;;;;;;;4957498;28;20065;-72
2023/02/25 14:08:11;;;;;;;3.95;1.30;;;;;;;;;;4962658;28;20127;-73
2023/02/25 14:10:54;;;;;;;5.75;1.83;;;;;;;;;;4985623;28;20051;-73
2023/02/25 14:13:38;;;;;;;3.95;1.13;;;;;;;;;;4942370;28;20084;-73
2023/02/25 14:16:33;;;;;;;5.63;1.13;;;;;;;;;;4969716;28;20065;-73
2023/02/25 14:19:25;;;;;;;4.07;1.35;;;;;;;;;;4983770;28;20500;-73
2023/02/25 14:22:12;;;;;;;4.10;1.15;;;;;;;;;;4968433;28;20055;-72
2023/02/25 14:25:07;;;;;;;4.50;1.42;;;;;;;;;;4957776;28;20500;-73
2023/02/25 14:28:04;;;;;;;4.05;1.20;;;;;;;;;;4948586;28;20058;-74
2023/02/25 14:30:34;;;;;;;5.68;1.48;;;;;;;;;;4967634;28;20050;-73
2023/02/25 14:33:10;;;;;;;3.92;1.33;;;;;;;;;;4984623;28;20062;-72
2023/02/25 14:35:51;;;;;;;5.53;1.60;;;;;;;;;;4988337;28;20195;-73
2023/02/25 14:38:31;;;;;;;4.07;1.40;;;;;;;;;;4990027;28;20062;-73
2023/02/25 14:41:28;;;;;;;3.72;1.38;;;;;;;;;;4986349;28;20114;-73
2023/02/25 14:43:58;;;;;;;4.57;1.50;;;;;;;;;;4985781;28;20057;-73
2023/02/25 14:46:28;;;;;;;3.00;1.50;;;;;;;;;;4948009;28;20047;-73
2023/02/25 14:49:00;;;;;;;7.13;1.70;;;;;;;;;;4987086;28;20054;-73
2023/02/25 14:51:39;;;;;;;5.03;1.57;;;;;;;;;;4987860;28;20051;-73
2023/02/25 14:54:25;;;;;;;9.50;1.88;;;;;;;;;;4969384;28;20527;-73
2023/02/25 14:57:06;;;;;;;4.35;1.67;;;;;;;;;;4987867;28;20546;-73
2023/02/25 14:59:48;;;;;;;5.13;1.33;;;;;;;;;;4957475;28;20054;-73
2023/02/25 15:02:21;;;;;;;4.53;1.60;;;;;;;;;;4967882;28;20058;-73
2023/02/25 15:04:59;;;;;;;2.88;1.60;;;;;;;;;;4988390;28;20065;-73
2023/02/25 15:07:47;;;;;;;3.95;1.30;;;;;;;;;;4987699;28;20054;-72
2023/02/25 15:10:23;;;;;;;3.88;1.52;;;;;;;;;;4986807;28;20055;-73
2023/02/25 15:13:15;;;;;;;3.50;1.23;;;;;;;;;;4988847;28;20054;-73
2023/02/25 15:16:00;;;;;;;6.97;1.05;;;;;;;;;;4989235;28;20431;-73
2023/02/25 15:18:59;;;;;;;4.80;1.20;;;;;;;;;;4987601;28;20046;-73
2023/02/25 15:21:36;;;;;;;7.82;2.22;;;;;;;;;;4971947;28;20683;-73
2023/02/25 15:24:03;;;;;;;4.18;1.25;;;;;;;;;;4987373;28;20054;-73